Terminal Aerodrome Forecast
Issued by NWS Sterling, VA

Home | Current Version | Previous Version | Text Only | Print | Product List | Glossary On
Versions: 1 2 3 4 5 6 7 8 9 10 11 12 13 14 15 16 17 18 19 20 21 22 23 24 25 26 27 28 29 30 31
177
FTUS41 KLWX 240530
TAFDCA
TAF
KDCA 240530Z 2406/2506 27004KT 6SM BR SCT070 BKN090
     FM240900 28004KT 5SM BR SCT070 BKN200
     FM241200 31007KT P6SM FEW140 SCT250
     FM250200 25005KT P6SM FEW250=

USA.gov is the U.S. government's official web portal to all federal, state and local government web resources and services.